Estación Meteorológica Peña el Pijo (Robertgarden) [ 02/03/23 04:14:53 CET ]

Fecha Hora Presion(HPa) Temp (°C) Humedad % Rocio (°C) Viento ( m/s) Direccion Lluvia 1Hora(mm) Lluvia 24H(mm) LLuvia Total(mm)
2012-Jun-05 01:01:16 1013.000 14.5 50 4.2         159.54
2012-Jun-05 02:01:12 1012.900 12.9 56 4.3         159.54
2012-Jun-05 03:06:12 1012.700 11.8 59 4.0         159.54
2012-Jun-05 04:01:12 1012.300 11.5 61 4.2         159.54
2012-Jun-05 05:01:12 1012.100 11.6 62 4.5         159.54
2012-Jun-05 06:01:13 1012.200 10.9 65 4.5         159.54
2012-Jun-05 07:01:14 1012.100 10.3 67 4.4         159.54
2012-Jun-05 08:01:12 1012.200 13.4 65 6.9         159.54
2012-Jun-05 09:01:11 1012.400 19.4 47 7.8         159.54
2012-Jun-05 10:01:17 1012.100 26.3 35 9.5         159.54
2012-Jun-05 11:01:14 1011.900 29.9 26 8.1         159.54
2012-Jun-05 12:01:13 1012.100 32.2 22 7.7         159.54
2012-Jun-05 13:01:14 1011.900 32.7 22 8.1         159.54
2012-Jun-05 14:01:17 1011.500 33.5 21 8.1         159.54
2012-Jun-05 15:01:16 1011.100 34.0 20 7.9         159.54
2012-Jun-05 16:01:18 1010.600 35.6 17 6.3 1.4 WSW     159.54
2012-Jun-05 17:01:13 1010.200 35.0 17 5.8         159.54
2012-Jun-05 18:01:13 1010.100 34.4 15 3.3         159.54
2012-Jun-05 19:01:13 1010.000 32.3 18 4.6         159.54
2012-Jun-05 20:01:16 1010.600 30.1 16 0.9         159.54
2012-Jun-05 21:01:11 1010.800 25.6 21 1.6         159.54
2012-Jun-05 22:01:16 1011.000 20.8 32 3.4         159.54
2012-Jun-05 23:01:14 1011.800 17.8 38 3.2         159.54

Temperatura Máxima:35°    Temperatura Mínima:10°
Presión Máxima:1013.000 Hpa    Presión Mínima:1010.000 Hpa


Volver